sensor_id;sensor_type;location;lat;lon;timestamp;P1;durP1;ratioP1;P2;durP2;ratioP2
79371;SDS011;68914;51.262;6.802;2023-04-10T00:00:21;12.23;;;6.23;;
79371;SDS011;68914;51.262;6.802;2023-04-10T00:01:22;15.55;;;6.38;;
79371;SDS011;68914;51.262;6.802;2023-04-10T00:02:22;12.27;;;6.20;;
79371;SDS011;68914;51.262;6.802;2023-04-10T00:03:23;12.65;;;6.47;;
79371;SDS011;68914;51.262;6.802;2023-04-10T00:04:24;12.73;;;6.27;;
79371;SDS011;68914;51.262;6.802;2023-04-10T00:05:24;13.63;;;6.43;;
79371;SDS011;68914;51.262;6.802;2023-04-10T00:06:25;13.50;;;6.20;;
79371;SDS011;68914;51.262;6.802;2023-04-10T00:07:27;12.02;;;6.07;;
79371;SDS011;68914;51.262;6.802;2023-04-10T00:08:28;12.82;;;6.28;;
79371;SDS011;68914;51.262;6.802;2023-04-10T00:09:29;12.53;;;6.13;;
79371;SDS011;68914;51.262;6.802;2023-04-10T00:10:30;12.57;;;6.20;;
79371;SDS011;68914;51.262;6.802;2023-04-10T00:11:31;13.00;;;6.57;;
79371;SDS011;68914;51.262;6.802;2023-04-10T00:12:32;12.73;;;6.18;;
79371;SDS011;68914;51.262;6.802;2023-04-10T00:13:34;11.52;;;5.70;;
79371;SDS011;68914;51.262;6.802;2023-04-10T00:14:35;13.97;;;6.63;;
79371;SDS011;68914;51.262;6.802;2023-04-10T00:15:36;12.90;;;6.10;;
79371;SDS011;68914;51.262;6.802;2023-04-10T00:16:36;12.70;;;6.40;;
79371;SDS011;68914;51.262;6.802;2023-04-10T00:17:37;11.82;;;6.18;;
79371;SDS011;68914;51.262;6.802;2023-04-10T00:18:38;13.02;;;6.32;;
79371;SDS011;68914;51.262;6.802;2023-04-10T00:19:38;12.83;;;6.50;;
79371;SDS011;68914;51.262;6.802;2023-04-10T00:20:39;13.43;;;6.70;;
79371;SDS011;68914;51.262;6.802;2023-04-10T00:21:40;12.03;;;6.37;;
79371;SDS011;68914;51.262;6.802;2023-04-10T00:22:40;12.52;;;6.13;;
79371;SDS011;68914;51.262;6.802;2023-04-10T00:23:42;14.50;;;6.88;;
79371;SDS011;68914;51.262;6.802;2023-04-10T00:24:42;12.63;;;6.30;;
79371;SDS011;68914;51.262;6.802;2023-04-10T00:25:43;12.70;;;6.60;;
79371;SDS011;68914;51.262;6.802;2023-04-10T00:26:43;13.40;;;6.70;;
79371;SDS011;68914;51.262;6.802;2023-04-10T00:27:44;13.18;;;6.50;;
79371;SDS011;68914;51.262;6.802;2023-04-10T00:28:45;12.77;;;6.60;;
79371;SDS011;68914;51.262;6.802;2023-04-10T00:29:45;12.20;;;6.15;;
79371;SDS011;68914;51.262;6.802;2023-04-10T00:30:46;13.43;;;6.60;;
79371;SDS011;68914;51.262;6.802;2023-04-10T00:31:46;13.65;;;6.50;;
79371;SDS011;68914;51.262;6.802;2023-04-10T00:32:47;12.63;;;6.40;;
79371;SDS011;68914;51.262;6.802;2023-04-10T00:33:47;13.88;;;6.35;;
79371;SDS011;68914;51.262;6.802;2023-04-10T00:34:48;13.23;;;6.33;;
79371;SDS011;68914;51.262;6.802;2023-04-10T00:35:49;14.07;;;6.70;;
79371;SDS011;68914;51.262;6.802;2023-04-10T00:36:49;13.07;;;6.40;;
79371;SDS011;68914;51.262;6.802;2023-04-10T00:37:50;13.32;;;6.72;;
79371;SDS011;68914;51.262;6.802;2023-04-10T00:38:51;13.48;;;6.57;;
79371;SDS011;68914;51.262;6.802;2023-04-10T00:39:52;13.83;;;6.50;;
79371;SDS011;68914;51.262;6.802;2023-04-10T00:40:52;12.60;;;6.30;;
79371;SDS011;68914;51.262;6.802;2023-04-10T00:41:53;13.73;;;6.60;;
79371;SDS011;68914;51.262;6.802;2023-04-10T00:42:54;14.10;;;7.60;;
79371;SDS011;68914;51.262;6.802;2023-04-10T00:43:55;13.90;;;6.77;;
79371;SDS011;68914;51.262;6.802;2023-04-10T00:44:56;13.00;;;6.38;;
79371;SDS011;68914;51.262;6.802;2023-04-10T00:45:57;14.90;;;6.93;;
79371;SDS011;68914;51.262;6.802;2023-04-10T00:46:58;12.98;;;6.60;;
79371;SDS011;68914;51.262;6.802;2023-04-10T00:47:58;13.93;;;6.50;;
79371;SDS011;68914;51.262;6.802;2023-04-10T00:48:59;13.55;;;6.43;;
79371;SDS011;68914;51.262;6.802;2023-04-10T00:50:00;12.65;;;5.97;;
79371;SDS011;68914;51.262;6.802;2023-04-10T00:51:01;13.30;;;5.90;;
79371;SDS011;68914;51.262;6.802;2023-04-10T00:52:03;15.98;;;7.00;;
79371;SDS011;68914;51.262;6.802;2023-04-10T00:53:04;12.97;;;6.77;;
79371;SDS011;68914;51.262;6.802;2023-04-10T00:54:05;12.82;;;6.70;;
79371;SDS011;68914;51.262;6.802;2023-04-10T00:55:05;12.50;;;6.57;;
79371;SDS011;68914;51.262;6.802;2023-04-10T00:56:07;12.38;;;6.30;;
79371;SDS011;68914;51.262;6.802;2023-04-10T00:57:08;12.90;;;6.57;;
79371;SDS011;68914;51.262;6.802;2023-04-10T00:58:12;13.27;;;6.90;;
79371;SDS011;68914;51.262;6.802;2023-04-10T00:59:14;13.40;;;7.05;;
79371;SDS011;68914;51.262;6.802;2023-04-10T01:00:15;13.10;;;6.45;;
79371;SDS011;68914;51.262;6.802;2023-04-10T01:01:16;14.30;;;6.60;;
79371;SDS011;68914;51.262;6.802;2023-04-10T01:02:17;13.77;;;6.60;;
79371;SDS011;68914;51.262;6.802;2023-04-10T01:03:19;14.07;;;6.60;;
79371;SDS011;68914;51.262;6.802;2023-04-10T01:04:20;13.98;;;7.13;;
79371;SDS011;68914;51.262;6.802;2023-04-10T01:05:22;13.73;;;6.75;;
79371;SDS011;68914;51.262;6.802;2023-04-10T01:11:12;14.57;;;6.85;;
79371;SDS011;68914;51.262;6.802;2023-04-10T01:13:47;13.15;;;6.50;;
79371;SDS011;68914;51.262;6.802;2023-04-10T01:16:00;12.77;;;6.28;;
79371;SDS011;68914;51.262;6.802;2023-04-10T01:17:21;13.43;;;6.80;;
79371;SDS011;68914;51.262;6.802;2023-04-10T01:18:33;12.60;;;6.20;;
79371;SDS011;68914;51.262;6.802;2023-04-10T01:20:59;14.75;;;7.30;;
79371;SDS011;68914;51.262;6.802;2023-04-10T01:22:02;13.90;;;6.50;;
79371;SDS011;68914;51.262;6.802;2023-04-10T01:25:58;13.93;;;6.53;;
79371;SDS011;68914;51.262;6.802;2023-04-10T01:27:07;13.07;;;6.38;;
79371;SDS011;68914;51.262;6.802;2023-04-10T01:29:32;13.70;;;6.75;;
79371;SDS011;68914;51.262;6.802;2023-04-10T01:30:35;14.57;;;7.10;;
79371;SDS011;68914;51.262;6.802;2023-04-10T01:32:11;13.45;;;6.57;;
79371;SDS011;68914;51.262;6.802;2023-04-10T01:33:17;14.45;;;6.45;;
79371;SDS011;68914;51.262;6.802;2023-04-10T01:34:22;14.82;;;7.10;;
79371;SDS011;68914;51.262;6.802;2023-04-10T01:35:26;14.55;;;7.03;;
79371;SDS011;68914;51.262;6.802;2023-04-10T01:36:30;14.53;;;6.77;;
79371;SDS011;68914;51.262;6.802;2023-04-10T01:37:37;13.85;;;6.90;;
79371;SDS011;68914;51.262;6.802;2023-04-10T01:38:41;14.52;;;6.85;;
79371;SDS011;68914;51.262;6.802;2023-04-10T01:39:43;13.57;;;6.85;;
79371;SDS011;68914;51.262;6.802;2023-04-10T01:40:51;14.65;;;7.07;;
79371;SDS011;68914;51.262;6.802;2023-04-10T01:42:00;12.93;;;5.93;;
79371;SDS011;68914;51.262;6.802;2023-04-10T01:43:12;15.15;;;7.30;;
79371;SDS011;68914;51.262;6.802;2023-04-10T01:44:22;13.82;;;6.68;;
79371;SDS011;68914;51.262;6.802;2023-04-10T01:45:27;13.88;;;6.30;;
79371;SDS011;68914;51.262;6.802;2023-04-10T01:46:30;14.40;;;7.25;;
79371;SDS011;68914;51.262;6.802;2023-04-10T01:47:32;14.27;;;7.03;;
79371;SDS011;68914;51.262;6.802;2023-04-10T01:48:33;14.75;;;6.85;;
79371;SDS011;68914;51.262;6.802;2023-04-10T01:49:34;15.55;;;6.95;;
79371;SDS011;68914;51.262;6.802;2023-04-10T01:50:41;14.35;;;7.03;;
79371;SDS011;68914;51.262;6.802;2023-04-10T01:51:44;14.43;;;7.00;;
79371;SDS011;68914;51.262;6.802;2023-04-10T01:52:46;15.85;;;7.40;;
79371;SDS011;68914;51.262;6.802;2023-04-10T01:53:51;15.05;;;7.38;;
79371;SDS011;68914;51.262;6.802;2023-04-10T01:54:57;14.88;;;7.75;;
79371;SDS011;68914;51.262;6.802;2023-04-10T01:56:07;15.90;;;7.55;;
79371;SDS011;68914;51.262;6.802;2023-04-10T01:57:15;15.27;;;7.50;;
79371;SDS011;68914;51.262;6.802;2023-04-10T01:58:25;16.20;;;7.90;;
79371;SDS011;68914;51.262;6.802;2023-04-10T01:59:29;14.52;;;6.85;;
79371;SDS011;68914;51.262;6.802;2023-04-10T02:00:36;16.48;;;7.55;;
79371;SDS011;68914;51.262;6.802;2023-04-10T02:01:37;15.18;;;8.00;;
79371;SDS011;68914;51.262;6.802;2023-04-10T02:02:38;15.45;;;7.38;;
79371;SDS011;68914;51.262;6.802;2023-04-10T02:03:39;15.90;;;7.80;;
79371;SDS011;68914;51.262;6.802;2023-04-10T02:04:39;15.68;;;7.68;;
79371;SDS011;68914;51.262;6.802;2023-04-10T02:07:19;15.75;;;7.80;;
79371;SDS011;68914;51.262;6.802;2023-04-10T02:08:55;17.05;;;7.78;;
79371;SDS011;68914;51.262;6.802;2023-04-10T02:10:01;17.20;;;7.97;;
79371;SDS011;68914;51.262;6.802;2023-04-10T02:11:14;15.55;;;7.93;;
79371;SDS011;68914;51.262;6.802;2023-04-10T02:13:36;15.00;;;7.85;;
79371;SDS011;68914;51.262;6.802;2023-04-10T02:14:40;15.25;;;7.50;;
79371;SDS011;68914;51.262;6.802;2023-04-10T02:15:45;14.48;;;7.47;;
79371;SDS011;68914;51.262;6.802;2023-04-10T02:16:47;15.07;;;7.60;;
79371;SDS011;68914;51.262;6.802;2023-04-10T02:17:52;16.08;;;7.88;;
79371;SDS011;68914;51.262;6.802;2023-04-10T02:18:55;16.02;;;7.80;;
79371;SDS011;68914;51.262;6.802;2023-04-10T02:19:58;14.57;;;7.78;;
79371;SDS011;68914;51.262;6.802;2023-04-10T02:21:00;15.57;;;7.78;;
79371;SDS011;68914;51.262;6.802;2023-04-10T02:22:02;16.65;;;8.25;;
79371;SDS011;68914;51.262;6.802;2023-04-10T02:23:04;14.98;;;7.40;;
79371;SDS011;68914;51.262;6.802;2023-04-10T02:24:05;16.17;;;7.82;;
79371;SDS011;68914;51.262;6.802;2023-04-10T02:25:06;15.07;;;7.83;;
79371;SDS011;68914;51.262;6.802;2023-04-10T02:26:08;14.90;;;7.55;;
79371;SDS011;68914;51.262;6.802;2023-04-10T02:27:09;16.65;;;7.88;;
79371;SDS011;68914;51.262;6.802;2023-04-10T02:28:09;14.90;;;7.60;;
79371;SDS011;68914;51.262;6.802;2023-04-10T02:29:10;15.82;;;7.85;;
79371;SDS011;68914;51.262;6.802;2023-04-10T02:30:11;15.70;;;7.70;;
79371;SDS011;68914;51.262;6.802;2023-04-10T02:31:12;16.30;;;7.87;;
79371;SDS011;68914;51.262;6.802;2023-04-10T02:32:12;15.88;;;7.95;;
79371;SDS011;68914;51.262;6.802;2023-04-10T02:33:13;15.47;;;7.87;;
79371;SDS011;68914;51.262;6.802;2023-04-10T02:34:13;16.25;;;7.88;;
79371;SDS011;68914;51.262;6.802;2023-04-10T02:35:14;15.15;;;7.68;;
79371;SDS011;68914;51.262;6.802;2023-04-10T02:36:15;17.03;;;8.30;;
79371;SDS011;68914;51.262;6.802;2023-04-10T02:37:16;15.93;;;7.80;;
79371;SDS011;68914;51.262;6.802;2023-04-10T02:38:17;17.15;;;8.25;;
79371;SDS011;68914;51.262;6.802;2023-04-10T02:39:17;15.47;;;7.67;;
79371;SDS011;68914;51.262;6.802;2023-04-10T02:40:24;15.60;;;7.75;;
79371;SDS011;68914;51.262;6.802;2023-04-10T02:41:30;14.80;;;7.78;;
79371;SDS011;68914;51.262;6.802;2023-04-10T02:42:33;16.67;;;8.32;;
79371;SDS011;68914;51.262;6.802;2023-04-10T02:43:35;16.40;;;7.93;;
79371;SDS011;68914;51.262;6.802;2023-04-10T02:44:36;16.67;;;7.67;;
79371;SDS011;68914;51.262;6.802;2023-04-10T02:45:38;15.52;;;8.10;;
79371;SDS011;68914;51.262;6.802;2023-04-10T02:46:40;15.75;;;8.05;;
79371;SDS011;68914;51.262;6.802;2023-04-10T02:47:41;16.90;;;8.15;;
79371;SDS011;68914;51.262;6.802;2023-04-10T02:48:42;17.87;;;7.83;;
79371;SDS011;68914;51.262;6.802;2023-04-10T02:49:42;15.93;;;8.05;;
79371;SDS011;68914;51.262;6.802;2023-04-10T02:50:47;13.60;;;7.18;;
79371;SDS011;68914;51.262;6.802;2023-04-10T02:51:47;17.00;;;8.13;;
79371;SDS011;68914;51.262;6.802;2023-04-10T02:52:48;15.23;;;7.22;;
79371;SDS011;68914;51.262;6.802;2023-04-10T02:53:48;15.83;;;7.77;;
79371;SDS011;68914;51.262;6.802;2023-04-10T02:55:00;17.50;;;7.90;;
79371;SDS011;68914;51.262;6.802;2023-04-10T02:56:05;15.30;;;7.53;;
79371;SDS011;68914;51.262;6.802;2023-04-10T02:57:07;14.90;;;7.30;;
79371;SDS011;68914;51.262;6.802;2023-04-10T02:58:07;15.37;;;7.87;;
79371;SDS011;68914;51.262;6.802;2023-04-10T02:59:08;16.10;;;7.60;;
79371;SDS011;68914;51.262;6.802;2023-04-10T03:00:09;16.45;;;8.05;;
79371;SDS011;68914;51.262;6.802;2023-04-10T03:01:41;15.80;;;7.38;;
79371;SDS011;68914;51.262;6.802;2023-04-10T03:02:42;17.05;;;7.93;;
79371;SDS011;68914;51.262;6.802;2023-04-10T03:03:49;17.27;;;8.03;;
79371;SDS011;68914;51.262;6.802;2023-04-10T03:04:59;15.10;;;7.75;;
79371;SDS011;68914;51.262;6.802;2023-04-10T03:06:01;17.17;;;8.00;;
79371;SDS011;68914;51.262;6.802;2023-04-10T03:07:05;14.77;;;7.80;;
79371;SDS011;68914;51.262;6.802;2023-04-10T03:08:09;17.13;;;7.85;;
79371;SDS011;68914;51.262;6.802;2023-04-10T03:09:10;17.83;;;8.00;;
79371;SDS011;68914;51.262;6.802;2023-04-10T03:10:10;16.53;;;7.97;;
79371;SDS011;68914;51.262;6.802;2023-04-10T03:11:11;16.60;;;8.18;;
79371;SDS011;68914;51.262;6.802;2023-04-10T03:12:12;17.00;;;8.13;;
79371;SDS011;68914;51.262;6.802;2023-04-10T03:13:13;17.70;;;8.00;;
79371;SDS011;68914;51.262;6.802;2023-04-10T03:14:14;15.70;;;8.15;;
79371;SDS011;68914;51.262;6.802;2023-04-10T03:15:15;16.73;;;7.63;;
79371;SDS011;68914;51.262;6.802;2023-04-10T03:16:15;14.27;;;7.10;;
79371;SDS011;68914;51.262;6.802;2023-04-10T03:17:20;16.63;;;8.15;;
79371;SDS011;68914;51.262;6.802;2023-04-10T03:18:21;16.40;;;7.85;;
79371;SDS011;68914;51.262;6.802;2023-04-10T03:19:25;15.35;;;7.70;;
79371;SDS011;68914;51.262;6.802;2023-04-10T03:20:26;15.68;;;7.80;;
79371;SDS011;68914;51.262;6.802;2023-04-10T03:21:26;15.90;;;8.03;;
79371;SDS011;68914;51.262;6.802;2023-04-10T03:22:28;17.73;;;7.93;;
79371;SDS011;68914;51.262;6.802;2023-04-10T03:23:31;17.52;;;8.23;;
79371;SDS011;68914;51.262;6.802;2023-04-10T03:24:31;14.43;;;7.37;;
79371;SDS011;68914;51.262;6.802;2023-04-10T03:25:32;16.23;;;7.90;;
79371;SDS011;68914;51.262;6.802;2023-04-10T03:26:33;16.10;;;8.00;;
79371;SDS011;68914;51.262;6.802;2023-04-10T03:27:34;15.13;;;7.60;;
79371;SDS011;68914;51.262;6.802;2023-04-10T03:28:36;13.45;;;7.22;;
79371;SDS011;68914;51.262;6.802;2023-04-10T03:29:37;16.85;;;8.55;;
79371;SDS011;68914;51.262;6.802;2023-04-10T03:30:38;17.33;;;8.30;;
79371;SDS011;68914;51.262;6.802;2023-04-10T03:31:38;15.80;;;7.80;;
79371;SDS011;68914;51.262;6.802;2023-04-10T03:32:39;14.65;;;7.75;;
79371;SDS011;68914;51.262;6.802;2023-04-10T03:33:41;16.33;;;7.57;;
79371;SDS011;68914;51.262;6.802;2023-04-10T03:34:42;15.83;;;7.87;;
79371;SDS011;68914;51.262;6.802;2023-04-10T03:35:43;16.20;;;7.97;;
79371;SDS011;68914;51.262;6.802;2023-04-10T03:36:45;16.15;;;7.80;;
79371;SDS011;68914;51.262;6.802;2023-04-10T03:37:48;15.48;;;7.70;;
79371;SDS011;68914;51.262;6.802;2023-04-10T03:38:48;14.50;;;7.17;;
79371;SDS011;68914;51.262;6.802;2023-04-10T03:39:50;15.30;;;7.55;;
79371;SDS011;68914;51.262;6.802;2023-04-10T03:40:51;15.00;;;7.43;;
79371;SDS011;68914;51.262;6.802;2023-04-10T03:41:54;16.38;;;7.63;;
79371;SDS011;68914;51.262;6.802;2023-04-10T03:42:57;15.13;;;7.55;;
79371;SDS011;68914;51.262;6.802;2023-04-10T03:43:58;14.43;;;7.60;;
79371;SDS011;68914;51.262;6.802;2023-04-10T03:45:02;14.93;;;7.22;;
79371;SDS011;68914;51.262;6.802;2023-04-10T03:46:05;15.18;;;7.72;;
79371;SDS011;68914;51.262;6.802;2023-04-10T03:47:09;14.95;;;7.53;;
79371;SDS011;68914;51.262;6.802;2023-04-10T03:48:10;15.53;;;7.93;;
79371;SDS011;68914;51.262;6.802;2023-04-10T03:49:15;15.77;;;7.63;;
79371;SDS011;68914;51.262;6.802;2023-04-10T03:50:16;15.45;;;7.57;;
79371;SDS011;68914;51.262;6.802;2023-04-10T03:51:25;15.32;;;7.60;;
79371;SDS011;68914;51.262;6.802;2023-04-10T03:52:26;15.68;;;7.72;;
79371;SDS011;68914;51.262;6.802;2023-04-10T03:53:28;13.82;;;6.93;;
79371;SDS011;68914;51.262;6.802;2023-04-10T03:54:29;15.50;;;7.53;;
79371;SDS011;68914;51.262;6.802;2023-04-10T03:55:30;15.60;;;7.80;;
79371;SDS011;68914;51.262;6.802;2023-04-10T03:56:31;15.23;;;7.45;;
79371;SDS011;68914;51.262;6.802;2023-04-10T03:57:32;16.35;;;7.60;;
79371;SDS011;68914;51.262;6.802;2023-04-10T03:58:37;15.45;;;7.30;;
79371;SDS011;68914;51.262;6.802;2023-04-10T03:59:37;14.20;;;7.30;;
79371;SDS011;68914;51.262;6.802;2023-04-10T04:00:39;14.80;;;7.22;;
79371;SDS011;68914;51.262;6.802;2023-04-10T04:01:51;15.18;;;7.50;;
79371;SDS011;68914;51.262;6.802;2023-04-10T04:02:52;15.48;;;7.70;;
79371;SDS011;68914;51.262;6.802;2023-04-10T04:04:23;15.18;;;7.63;;
79371;SDS011;68914;51.262;6.802;2023-04-10T04:05:44;14.63;;;7.07;;
79371;SDS011;68914;51.262;6.802;2023-04-10T04:06:57;15.18;;;7.47;;
79371;SDS011;68914;51.262;6.802;2023-04-10T04:07:57;14.50;;;7.07;;
79371;SDS011;68914;51.262;6.802;2023-04-10T04:09:27;14.33;;;6.60;;
79371;SDS011;68914;51.262;6.802;2023-04-10T04:10:51;16.10;;;7.22;;
79371;SDS011;68914;51.262;6.802;2023-04-10T04:11:58;14.65;;;7.07;;
79371;SDS011;68914;51.262;6.802;2023-04-10T04:13:17;14.77;;;7.00;;
79371;SDS011;68914;51.262;6.802;2023-04-10T04:14:40;15.48;;;7.20;;
79371;SDS011;68914;51.262;6.802;2023-04-10T04:15:59;15.63;;;7.43;;
79371;SDS011;68914;51.262;6.802;2023-04-10T04:17:19;14.10;;;7.10;;
79371;SDS011;68914;51.262;6.802;2023-04-10T04:18:46;14.50;;;7.22;;
79371;SDS011;68914;51.262;6.802;2023-04-10T04:20:10;14.10;;;7.50;;
79371;SDS011;68914;51.262;6.802;2023-04-10T04:21:17;15.23;;;6.80;;
79371;SDS011;68914;51.262;6.802;2023-04-10T04:22:37;14.87;;;7.07;;
79371;SDS011;68914;51.262;6.802;2023-04-10T04:23:51;14.77;;;6.97;;
79371;SDS011;68914;51.262;6.802;2023-04-10T04:25:02;13.75;;;6.47;;
79371;SDS011;68914;51.262;6.802;2023-04-10T04:26:26;14.85;;;7.13;;
79371;SDS011;68914;51.262;6.802;2023-04-10T04:27:46;14.60;;;7.25;;
79371;SDS011;68914;51.262;6.802;2023-04-10T04:29:05;14.90;;;6.93;;
79371;SDS011;68914;51.262;6.802;2023-04-10T04:30:11;14.38;;;6.90;;
79371;SDS011;68914;51.262;6.802;2023-04-10T04:31:38;14.45;;;6.93;;
79371;SDS011;68914;51.262;6.802;2023-04-10T04:32:38;14.63;;;6.80;;
79371;SDS011;68914;51.262;6.802;2023-04-10T04:33:58;14.60;;;7.13;;
79371;SDS011;68914;51.262;6.802;2023-04-10T04:35:12;14.48;;;7.18;;
79371;SDS011;68914;51.262;6.802;2023-04-10T04:36:42;14.57;;;6.70;;
79371;SDS011;68914;51.262;6.802;2023-04-10T04:37:53;14.85;;;7.00;;
79371;SDS011;68914;51.262;6.802;2023-04-10T04:39:32;13.95;;;6.72;;
79371;SDS011;68914;51.262;6.802;2023-04-10T04:41:06;14.50;;;6.68;;
79371;SDS011;68914;51.262;6.802;2023-04-10T04:42:27;13.90;;;6.93;;
79371;SDS011;68914;51.262;6.802;2023-04-10T04:43:51;13.07;;;6.23;;
79371;SDS011;68914;51.262;6.802;2023-04-10T04:45:12;14.43;;;6.72;;
79371;SDS011;68914;51.262;6.802;2023-04-10T04:46:45;13.50;;;6.63;;
79371;SDS011;68914;51.262;6.802;2023-04-10T04:48:13;12.98;;;6.28;;
79371;SDS011;68914;51.262;6.802;2023-04-10T04:49:30;13.43;;;6.70;;
79371;SDS011;68914;51.262;6.802;2023-04-10T04:50:49;14.60;;;6.40;;
79371;SDS011;68914;51.262;6.802;2023-04-10T04:52:08;13.30;;;6.80;;
79371;SDS011;68914;51.262;6.802;2023-04-10T04:53:27;12.10;;;6.05;;
79371;SDS011;68914;51.262;6.802;2023-04-10T04:54:38;13.80;;;6.55;;
79371;SDS011;68914;51.262;6.802;2023-04-10T04:55:58;14.18;;;6.78;;
79371;SDS011;68914;51.262;6.802;2023-04-10T04:57:12;14.90;;;7.20;;
79371;SDS011;68914;51.262;6.802;2023-04-10T04:58:48;13.90;;;6.68;;
79371;SDS011;68914;51.262;6.802;2023-04-10T05:00:09;12.98;;;6.20;;
79371;SDS011;68914;51.262;6.802;2023-04-10T05:01:29;14.80;;;7.15;;
79371;SDS011;68914;51.262;6.802;2023-04-10T05:02:38;14.68;;;7.18;;
79371;SDS011;68914;51.262;6.802;2023-04-10T05:03:48;15.30;;;7.20;;
79371;SDS011;68914;51.262;6.802;2023-04-10T05:05:08;13.90;;;6.45;;
79371;SDS011;68914;51.262;6.802;2023-04-10T05:06:19;13.23;;;6.45;;
79371;SDS011;68914;51.262;6.802;2023-04-10T05:07:39;14.25;;;6.60;;
79371;SDS011;68914;51.262;6.802;2023-04-10T05:08:59;13.80;;;6.72;;
79371;SDS011;68914;51.262;6.802;2023-04-10T05:10:15;13.27;;;6.60;;
79371;SDS011;68914;51.262;6.802;2023-04-10T05:11:34;13.60;;;6.57;;
79371;SDS011;68914;51.262;6.802;2023-04-10T05:12:55;13.25;;;6.75;;
79371;SDS011;68914;51.262;6.802;2023-04-10T05:14:04;15.77;;;6.85;;
79371;SDS011;68914;51.262;6.802;2023-04-10T05:15:17;12.55;;;6.25;;
79371;SDS011;68914;51.262;6.802;2023-04-10T05:16:37;14.70;;;6.90;;
79371;SDS011;68914;51.262;6.802;2023-04-10T05:17:58;12.90;;;6.28;;
79371;SDS011;68914;51.262;6.802;2023-04-10T05:19:15;14.00;;;6.78;;
79371;SDS011;68914;51.262;6.802;2023-04-10T05:20:29;13.63;;;6.63;;
79371;SDS011;68914;51.262;6.802;2023-04-10T05:21:36;14.13;;;6.35;;
79371;SDS011;68914;51.262;6.802;2023-04-10T05:22:56;14.23;;;6.63;;
79371;SDS011;68914;51.262;6.802;2023-04-10T05:24:09;13.82;;;6.05;;
79371;SDS011;68914;51.262;6.802;2023-04-10T05:25:21;15.15;;;7.30;;
79371;SDS011;68914;51.262;6.802;2023-04-10T05:26:37;14.00;;;6.35;;
79371;SDS011;68914;51.262;6.802;2023-04-10T05:27:54;13.57;;;6.78;;
79371;SDS011;68914;51.262;6.802;2023-04-10T05:29:01;12.98;;;6.40;;
79371;SDS011;68914;51.262;6.802;2023-04-10T05:30:10;13.40;;;6.63;;
79371;SDS011;68914;51.262;6.802;2023-04-10T05:31:11;12.60;;;6.45;;
79371;SDS011;68914;51.262;6.802;2023-04-10T05:32:12;13.43;;;6.50;;
79371;SDS011;68914;51.262;6.802;2023-04-10T05:33:33;13.60;;;7.10;;
79371;SDS011;68914;51.262;6.802;2023-04-10T05:35:02;13.65;;;6.60;;
79371;SDS011;68914;51.262;6.802;2023-04-10T05:36:18;14.32;;;6.35;;
79371;SDS011;68914;51.262;6.802;2023-04-10T05:37:38;13.75;;;6.45;;
79371;SDS011;68914;51.262;6.802;2023-04-10T05:38:59;14.45;;;6.68;;
79371;SDS011;68914;51.262;6.802;2023-04-10T05:40:09;13.90;;;6.68;;
79371;SDS011;68914;51.262;6.802;2023-04-10T05:41:28;12.37;;;6.33;;
79371;SDS011;68914;51.262;6.802;2023-04-10T05:42:40;12.98;;;6.50;;
79371;SDS011;68914;51.262;6.802;2023-04-10T05:43:58;14.10;;;6.65;;
79371;SDS011;68914;51.262;6.802;2023-04-10T05:45:07;13.70;;;6.65;;
79371;SDS011;68914;51.262;6.802;2023-04-10T05:46:29;13.25;;;6.50;;
79371;SDS011;68914;51.262;6.802;2023-04-10T05:47:47;13.77;;;6.45;;
79371;SDS011;68914;51.262;6.802;2023-04-10T05:49:02;12.40;;;6.22;;
79371;SDS011;68914;51.262;6.802;2023-04-10T05:50:16;13.68;;;6.47;;
79371;SDS011;68914;51.262;6.802;2023-04-10T05:51:45;12.25;;;6.20;;
79371;SDS011;68914;51.262;6.802;2023-04-10T05:53:11;13.35;;;6.57;;
79371;SDS011;68914;51.262;6.802;2023-04-10T05:54:37;13.00;;;6.10;;
79371;SDS011;68914;51.262;6.802;2023-04-10T05:56:00;12.38;;;6.10;;
79371;SDS011;68914;51.262;6.802;2023-04-10T05:57:30;12.85;;;6.00;;
79371;SDS011;68914;51.262;6.802;2023-04-10T05:58:37;13.55;;;6.55;;
79371;SDS011;68914;51.262;6.802;2023-04-10T05:59:51;13.85;;;6.13;;
79371;SDS011;68914;51.262;6.802;2023-04-10T06:01:10;13.15;;;6.38;;
79371;SDS011;68914;51.262;6.802;2023-04-10T06:02:19;13.63;;;6.20;;
79371;SDS011;68914;51.262;6.802;2023-04-10T06:03:21;14.38;;;6.90;;
79371;SDS011;68914;51.262;6.802;2023-04-10T06:04:28;12.35;;;5.43;;
79371;SDS011;68914;51.262;6.802;2023-04-10T06:05:31;12.45;;;5.53;;
79371;SDS011;68914;51.262;6.802;2023-04-10T06:06:36;11.40;;;5.23;;
79371;SDS011;68914;51.262;6.802;2023-04-10T06:07:38;13.55;;;6.45;;
79371;SDS011;68914;51.262;6.802;2023-04-10T06:08:38;12.07;;;6.10;;
79371;SDS011;68914;51.262;6.802;2023-04-10T06:09:39;12.73;;;6.10;;
79371;SDS011;68914;51.262;6.802;2023-04-10T06:10:42;12.60;;;5.78;;
79371;SDS011;68914;51.262;6.802;2023-04-10T06:11:44;13.55;;;6.40;;
79371;SDS011;68914;51.262;6.802;2023-04-10T06:12:45;14.27;;;6.27;;
79371;SDS011;68914;51.262;6.802;2023-04-10T06:13:47;14.00;;;6.25;;
79371;SDS011;68914;51.262;6.802;2023-04-10T06:14:47;11.35;;;5.43;;
79371;SDS011;68914;51.262;6.802;2023-04-10T06:15:52;12.30;;;5.80;;
79371;SDS011;68914;51.262;6.802;2023-04-10T06:16:53;12.97;;;5.97;;
79371;SDS011;68914;51.262;6.802;2023-04-10T06:17:54;11.85;;;5.93;;
79371;SDS011;68914;51.262;6.802;2023-04-10T06:18:55;11.40;;;5.82;;
79371;SDS011;68914;51.262;6.802;2023-04-10T06:19:55;11.27;;;5.40;;
79371;SDS011;68914;51.262;6.802;2023-04-10T06:20:56;10.98;;;5.18;;
79371;SDS011;68914;51.262;6.802;2023-04-10T06:21:59;12.20;;;5.68;;
79371;SDS011;68914;51.262;6.802;2023-04-10T06:23:00;12.03;;;5.90;;
79371;SDS011;68914;51.262;6.802;2023-04-10T06:24:00;13.05;;;6.28;;
79371;SDS011;68914;51.262;6.802;2023-04-10T06:25:01;11.57;;;5.10;;
79371;SDS011;68914;51.262;6.802;2023-04-10T06:26:02;12.30;;;5.93;;
79371;SDS011;68914;51.262;6.802;2023-04-10T06:27:03;10.65;;;5.30;;
79371;SDS011;68914;51.262;6.802;2023-04-10T06:28:04;11.88;;;5.75;;
79371;SDS011;68914;51.262;6.802;2023-04-10T06:29:05;12.45;;;5.80;;
79371;SDS011;68914;51.262;6.802;2023-04-10T06:30:07;13.07;;;6.30;;
79371;SDS011;68914;51.262;6.802;2023-04-10T06:31:08;15.13;;;6.75;;
79371;SDS011;68914;51.262;6.802;2023-04-10T06:32:10;12.43;;;6.18;;
79371;SDS011;68914;51.262;6.802;2023-04-10T06:33:13;11.32;;;5.78;;
79371;SDS011;68914;51.262;6.802;2023-04-10T06:34:17;13.90;;;5.90;;
79371;SDS011;68914;51.262;6.802;2023-04-10T06:35:27;12.00;;;5.75;;
79371;SDS011;68914;51.262;6.802;2023-04-10T06:36:28;11.87;;;5.80;;
79371;SDS011;68914;51.262;6.802;2023-04-10T06:37:34;11.35;;;5.53;;
79371;SDS011;68914;51.262;6.802;2023-04-10T06:38:36;12.18;;;6.13;;
79371;SDS011;68914;51.262;6.802;2023-04-10T06:39:37;11.75;;;6.13;;
79371;SDS011;68914;51.262;6.802;2023-04-10T06:40:39;12.07;;;5.90;;
79371;SDS011;68914;51.262;6.802;2023-04-10T06:41:40;14.70;;;6.38;;
79371;SDS011;68914;51.262;6.802;2023-04-10T06:42:53;12.20;;;5.40;;
79371;SDS011;68914;51.262;6.802;2023-04-10T06:44:03;11.15;;;5.20;;
79371;SDS011;68914;51.262;6.802;2023-04-10T06:45:04;11.10;;;5.33;;
79371;SDS011;68914;51.262;6.802;2023-04-10T06:46:05;12.68;;;6.25;;
79371;SDS011;68914;51.262;6.802;2023-04-10T06:47:06;12.45;;;5.47;;
79371;SDS011;68914;51.262;6.802;2023-04-10T06:48:08;12.35;;;5.68;;
79371;SDS011;68914;51.262;6.802;2023-04-10T06:49:08;9.97;;;4.97;;
79371;SDS011;68914;51.262;6.802;2023-04-10T06:50:09;11.60;;;5.38;;
79371;SDS011;68914;51.262;6.802;2023-04-10T06:51:10;9.50;;;4.77;;
79371;SDS011;68914;51.262;6.802;2023-04-10T06:52:10;11.70;;;5.95;;